Time;durP1;ratioP1;P1;durP2;ratioP2;P2;SDS_P1;SDS_P2;PMS_P1;PMS_P2;Temp;Humidity;BMP_temperature;BMP_pressure;BME280_temperature;BME280_humidity;BME280_pressure;Samples;Min_cycle;Max_cycle;Signal;HPM_P1;HPM_P2
2021/01/31 00:00:26;;;;;;;18.27;11.80;;;;;;;-0.67;100.00;99130.38;4958848;29;20646;-35
2021/01/31 00:03:19;;;;;;;15.33;10.53;;;;;;;-0.94;100.00;99140.03;4958868;29;20447;-33
2021/01/31 00:06:05;;;;;;;17.67;11.57;;;;;;;-0.88;100.00;99140.16;4959070;29;20447;-36
2021/01/31 00:08:52;;;;;;;23.47;13.97;;;;;;;-0.77;100.00;99148.81;4958847;29;20455;-34
2021/01/31 00:11:38;;;;;;;14.40;10.50;;;;;;;-1.01;100.00;99148.38;4959331;29;20480;-36
2021/01/31 00:14:24;;;;;;;18.03;11.97;;;;;;;-0.91;100.00;99152.78;4958502;29;20498;-34
2021/01/31 00:17:12;;;;;;;16.47;10.50;;;;;;;-1.02;100.00;99149.19;4959457;29;20439;-39
2021/01/31 00:19:59;;;;;;;23.10;12.90;;;;;;;-0.85;100.00;99157.97;4959278;29;20724;-35
2021/01/31 00:22:44;;;;;;;17.03;12.13;;;;;;;-0.70;100.00;99153.19;4958918;29;20946;-33
2021/01/31 00:25:35;;;;;;;18.57;11.80;;;;;;;-0.75;100.00;99165.78;4958433;29;20971;-33
2021/01/31 00:28:25;;;;;;;20.93;12.53;;;;;;;-0.82;100.00;99163.97;4958285;29;21172;-34
2021/01/31 00:31:11;;;;;;;17.87;10.80;;;;;;;-0.68;100.00;99166.75;4959077;29;20483;-34
2021/01/31 00:33:59;;;;;;;17.63;11.10;;;;;;;-0.83;100.00;99169.03;4958755;29;20463;-33
2021/01/31 00:36:45;;;;;;;15.70;11.30;;;;;;;-1.00;100.00;99160.25;4958412;29;20451;-34
2021/01/31 00:39:32;;;;;;;14.50;10.23;;;;;;;-0.99;100.00;99169.53;4958352;29;20451;-35
2021/01/31 00:42:20;;;;;;;19.93;12.03;;;;;;;-0.99;100.00;99161.91;4958849;29;20447;-34
2021/01/31 00:45:10;;;;;;;17.30;10.97;;;;;;;-0.97;100.00;99156.06;4958249;29;20727;-34
2021/01/31 00:47:56;;;;;;;16.40;11.37;;;;;;;-1.06;100.00;99163.50;4958828;29;20451;-33
2021/01/31 00:50:42;;;;;;;15.27;10.77;;;;;;;-1.08;100.00;99165.16;4958021;28;20572;-36
2021/01/31 00:53:28;;;;;;;17.30;11.93;;;;;;;-1.02;100.00;99162.75;4958415;29;20447;-33
2021/01/31 00:56:14;;;;;;;15.67;10.23;;;;;;;-1.11;100.00;99168.47;4958889;29;20452;-35
2021/01/31 00:58:59;;;;;;;16.50;10.23;;;;;;;-1.23;100.00;99172.47;4958452;29;20665;-33
2021/01/31 01:01:46;;;;;;;18.27;12.50;;;;;;;-1.27;100.00;99171.53;4958608;29;20885;-34
2021/01/31 01:04:32;;;;;;;16.67;10.50;;;;;;;-1.17;100.00;99163.28;4958587;29;20731;-34
2021/01/31 01:07:20;;;;;;;15.33;11.10;;;;;;;-1.22;100.00;99169.97;4958528;29;20451;-36
2021/01/31 01:10:07;;;;;;;16.47;10.97;;;;;;;-1.23;100.00;99175.00;4958241;29;20774;-38
2021/01/31 01:12:55;;;;;;;18.90;11.80;;;;;;;-1.42;100.00;99176.31;4958742;29;20463;-33
2021/01/31 01:15:41;;;;;;;17.80;10.90;;;;;;;-1.27;100.00;99171.53;4958425;29;20901;-34
2021/01/31 01:18:28;;;;;;;18.30;11.03;;;;;;;-1.30;100.00;99176.53;4958405;29;20447;-33
2021/01/31 01:21:15;;;;;;;16.10;10.93;;;;;;;-1.53;100.00;99180.28;4958569;29;20452;-33
2021/01/31 01:24:02;;;;;;;15.13;11.20;;;;;;;-1.26;100.00;99182.53;4958314;29;20472;-32
2021/01/31 01:26:51;;;;;;;20.43;11.63;;;;;;;-1.37;100.00;99174.69;4958209;29;20611;-34
2021/01/31 01:29:37;;;;;;;17.37;11.57;;;;;;;-1.42;100.00;99182.22;4958029;29;20578;-33
2021/01/31 01:32:24;;;;;;;19.60;11.33;;;;;;;-1.67;100.00;99179.13;4958328;29;20588;-33
2021/01/31 01:35:12;;;;;;;16.97;10.67;;;;;;;-1.64;100.00;99180.06;4958112;29;20451;-34
2021/01/31 01:37:59;;;;;;;15.07;9.70;;;;;;;-1.59;100.00;99180.13;4958008;29;20742;-33
2021/01/31 01:40:45;;;;;;;16.23;10.27;;;;;;;-1.76;100.00;99172.16;4957693;29;20857;-32
2021/01/31 01:43:31;;;;;;;17.03;10.13;;;;;;;-1.61;100.00;99170.00;4958034;29;20452;-33
2021/01/31 01:46:32;;;;;;;16.10;10.23;;;;;;;-1.68;100.00;99180.81;4957824;29;20882;-33
2021/01/31 01:49:22;;;;;;;18.40;11.73;;;;;;;-1.55;100.00;99177.69;4957721;29;20446;-32
2021/01/31 01:52:12;;;;;;;17.87;10.73;;;;;;;-1.70;100.00;99182.44;4958125;29;20451;-34
2021/01/31 01:55:02;;;;;;;21.17;12.07;;;;;;;-1.62;100.00;99186.03;4957597;29;20475;-32
2021/01/31 01:57:52;;;;;;;18.13;11.70;;;;;;;-1.56;100.00;99186.13;4958068;29;20607;-33
2021/01/31 02:00:41;;;;;;;19.57;11.50;;;;;;;-1.63;100.00;99188.50;4957923;29;20447;-32
2021/01/31 02:03:30;;;;;;;17.17;11.63;;;;;;;-1.59;100.00;99182.66;4961264;29;20507;-34
2021/01/31 02:06:19;;;;;;;20.53;12.90;;;;;;;-1.72;100.00;99181.56;4961521;29;20846;-31
2021/01/31 02:09:07;;;;;;;18.70;11.03;;;;;;;-1.78;100.00;99184.78;4961739;29;20878;-35
2021/01/31 02:11:55;;;;;;;15.40;10.43;;;;;;;-1.70;100.00;99181.59;4961570;29;20645;-35
2021/01/31 02:14:45;;;;;;;18.27;11.97;;;;;;;-1.61;100.00;99186.88;4960931;29;20894;-32
2021/01/31 02:17:44;;;;;;;16.53;11.23;;;;;;;-1.65;100.00;99192.69;4961021;29;20499;-32
2021/01/31 02:21:08;;;;;;;15.80;9.80;;;;;;;-1.82;100.00;99190.63;4961380;29;20444;-33
2021/01/31 02:24:43;;;;;;;14.97;10.20;;;;;;;-1.77;100.00;99194.09;4961100;29;20455;-33
2021/01/31 02:28:03;;;;;;;16.07;10.27;;;;;;;-1.96;100.00;99191.97;4961154;29;20517;-33
2021/01/31 02:31:34;;;;;;;18.73;10.27;;;;;;;-1.69;100.00;99198.50;4960860;29;20574;-32
2021/01/31 02:34:30;;;;;;;19.07;11.53;;;;;;;-1.79;100.00;99195.75;4842076;29;20468;-35
2021/01/31 02:37:27;;;;;;;16.77;10.40;;;;;;;-1.92;100.00;99195.44;4961086;29;20455;-34
2021/01/31 02:40:17;;;;;;;18.73;12.13;;;;;;;-1.74;100.00;99201.78;4960984;29;20839;-34
2021/01/31 02:43:10;;;;;;;19.30;11.40;;;;;;;-1.93;100.00;99197.13;4960719;29;20451;-33
2021/01/31 02:46:00;;;;;;;19.23;10.93;;;;;;;-2.21;100.00;99197.28;4960349;29;20471;-35
2021/01/31 02:48:52;;;;;;;17.20;11.20;;;;;;;-2.03;100.00;99195.22;4960302;29;20448;-34
2021/01/31 02:51:49;;;;;;;18.23;11.30;;;;;;;-1.96;100.00;99193.66;4960522;29;20546;-32
2021/01/31 02:54:42;;;;;;;16.57;10.10;;;;;;;-2.08;100.00;99192.56;4960365;29;20833;-33
2021/01/31 02:57:34;;;;;;;16.17;11.07;;;;;;;-1.99;100.00;99191.03;4960616;29;20624;-32
2021/01/31 03:00:25;;;;;;;13.60;10.13;;;;;;;-2.03;100.00;99187.59;4959994;29;20447;-32
2021/01/31 03:03:16;;;;;;;16.97;10.53;;;;;;;-2.18;100.00;99182.16;4960070;29;20761;-36
2021/01/31 03:06:10;;;;;;;20.33;12.93;;;;;;;-2.03;100.00;99177.47;4959874;29;20460;-32
2021/01/31 03:09:01;;;;;;;14.27;9.30;;;;;;;-2.20;100.00;99173.69;4960100;29;20451;-34
2021/01/31 03:11:54;;;;;;;15.23;9.90;;;;;;;-2.21;100.00;99174.50;4959963;29;20531;-35
2021/01/31 03:14:43;;;;;;;16.03;10.33;;;;;;;-2.09;100.00;99182.38;4959051;28;20459;-32
2021/01/31 03:17:34;;;;;;;13.93;9.77;;;;;;;-2.27;100.00;99181.94;4960078;29;20688;-32
2021/01/31 03:20:24;;;;;;;17.03;10.13;;;;;;;-2.25;100.00;99180.31;4959909;29;20561;-32
2021/01/31 03:23:16;;;;;;;15.60;10.23;;;;;;;-2.01;100.00;99183.44;4959097;29;20830;-32
2021/01/31 03:26:11;;;;;;;16.33;10.27;;;;;;;-2.21;100.00;99187.16;4959641;29;20535;-33
2021/01/31 03:28:57;;;;;;;17.90;11.67;;;;;;;-2.10;100.00;99185.72;4960125;29;20455;-35
2021/01/31 03:31:48;;;;;;;16.57;10.73;;;;;;;-2.33;100.00;99190.25;4959828;29;20958;-35
2021/01/31 03:34:38;;;;;;;13.70;9.20;;;;;;;-2.44;100.00;99182.38;4959565;29;20452;-32
2021/01/31 03:37:34;;;;;;;17.03;10.70;;;;;;;-2.22;100.00;99173.66;4959838;29;20491;-33
2021/01/31 03:40:23;;;;;;;15.50;9.97;;;;;;;-2.44;100.00;99179.84;4959614;29;20973;-32
2021/01/31 03:43:14;;;;;;;23.97;9.40;;;;;;;-2.53;100.00;99182.16;4959685;29;20459;-34
2021/01/31 03:46:05;;;;;;;14.43;9.40;;;;;;;-2.38;100.00;99176.59;4959568;29;20443;-33
2021/01/31 03:48:56;;;;;;;12.60;8.33;;;;;;;-2.50;100.00;99178.84;4959421;29;20451;-32
2021/01/31 03:51:42;;;;;;;17.33;9.70;;;;;;;-2.49;100.00;99172.97;4959507;29;20490;-31
2021/01/31 03:54:29;;;;;;;16.77;10.43;;;;;;;-2.52;100.00;99173.72;4959347;29;20460;-33
2021/01/31 03:57:20;;;;;;;23.10;13.10;;;;;;;-2.62;100.00;99173.47;4959312;29;20447;-32
2021/01/31 04:00:10;;;;;;;18.70;9.93;;;;;;;-2.57;100.00;99176.97;4959732;29;20475;-37
2021/01/31 04:02:59;;;;;;;18.53;10.73;;;;;;;-2.54;100.00;99179.56;4959395;29;20576;-32
2021/01/31 04:05:52;;;;;;;14.77;10.27;;;;;;;-2.36;100.00;99177.50;4959090;29;20839;-34
2021/01/31 04:08:40;;;;;;;16.20;10.30;;;;;;;-2.53;100.00;99176.22;4958998;29;20447;-31
2021/01/31 04:11:35;;;;;;;15.10;9.67;;;;;;;-2.48;100.00;99185.66;4958948;29;20487;-35
2021/01/31 04:14:25;;;;;;;16.07;10.37;;;;;;;-2.39;100.00;99184.16;4958323;29;20459;-33
2021/01/31 04:17:11;;;;;;;17.10;10.73;;;;;;;-2.44;100.00;99187.44;4958952;29;20611;-35
2021/01/31 04:19:57;;;;;;;19.30;11.87;;;;;;;-2.54;100.00;99185.50;4959299;29;20448;-35
2021/01/31 04:22:42;;;;;;;19.30;11.17;;;;;;;-2.51;100.00;99192.31;4959257;29;20743;-33
2021/01/31 04:25:29;;;;;;;16.80;10.43;;;;;;;-2.59;100.00;99193.78;4958292;28;20755;-34
2021/01/31 04:28:18;;;;;;;16.90;10.83;;;;;;;-2.67;100.00;99191.06;4958496;29;20467;-32
2021/01/31 04:31:04;;;;;;;15.80;9.80;;;;;;;-2.62;100.00;99187.00;4958657;29;20534;-33
2021/01/31 04:33:51;;;;;;;17.67;10.57;;;;;;;-2.48;100.00;99195.78;4958836;29;20615;-35
2021/01/31 04:36:36;;;;;;;17.90;10.50;;;;;;;-2.59;100.00;99194.63;4958488;29;20451;-32
2021/01/31 04:39:23;;;;;;;18.20;11.07;;;;;;;-2.66;100.00;99186.84;4958891;29;20617;-32
2021/01/31 04:42:09;;;;;;;18.80;11.13;;;;;;;-2.63;100.00;99192.00;4958803;29;20921;-31
2021/01/31 04:44:55;;;;;;;17.57;10.67;;;;;;;-2.64;100.00;99187.75;4958199;29;20575;-33
2021/01/31 04:47:52;;;;;;;16.67;10.70;;;;;;;-2.69;100.00;99199.44;4958163;29;20734;-33
2021/01/31 04:50:52;;;;;;;17.73;10.07;;;;;;;-2.73;100.00;99188.38;4958286;29;20487;-32
2021/01/31 04:53:53;;;;;;;17.63;10.07;;;;;;;-2.66;100.00;99187.72;4958384;29;20472;-33
2021/01/31 04:56:52;;;;;;;16.30;9.77;;;;;;;-2.61;100.00;99188.69;4958489;29;20439;-36
2021/01/31 04:59:41;;;;;;;16.33;10.13;;;;;;;-2.60;100.00;99184.50;4958055;29;20484;-34
2021/01/31 05:02:31;;;;;;;16.93;10.57;;;;;;;-2.67;100.00;99201.19;4958441;29;20447;-32
2021/01/31 05:05:21;;;;;;;15.90;10.07;;;;;;;-2.53;100.00;99199.88;4958546;29;20460;-34
2021/01/31 05:08:18;;;;;;;16.53;9.93;;;;;;;-2.51;100.00;99204.97;4958660;29;20451;-32
2021/01/31 05:11:12;;;;;;;19.33;10.37;;;;;;;-2.75;100.00;99200.13;4958359;29;20494;-34
2021/01/31 05:14:05;;;;;;;16.00;9.87;;;;;;;-2.81;100.00;99205.03;4958521;29;20452;-33
2021/01/31 05:16:51;;;;;;;15.17;9.70;;;;;;;-2.77;100.00;99205.13;4958141;29;20451;-35
2021/01/31 05:19:37;;;;;;;14.67;9.23;;;;;;;-2.76;100.00;99211.03;4958451;29;20538;-36
2021/01/31 05:22:29;;;;;;;18.37;10.53;;;;;;;-2.80;100.00;99210.09;4958296;29;20876;-34
2021/01/31 05:25:21;;;;;;;15.67;9.93;;;;;;;-2.78;100.00;99213.53;4957836;29;20463;-33
2021/01/31 05:28:08;;;;;;;17.57;10.80;;;;;;;-2.82;100.00;99221.88;4958431;29;20468;-36
2021/01/31 05:30:54;;;;;;;15.17;9.80;;;;;;;-2.88;100.00;99224.22;4958271;29;20754;-34
2021/01/31 05:33:52;;;;;;;16.93;10.63;;;;;;;-2.69;100.00;99229.78;4958389;29;20579;-32
2021/01/31 05:36:38;;;;;;;17.03;10.47;;;;;;;-2.81;100.00;99225.28;4958901;28;20507;-35
2021/01/31 05:39:44;;;;;;;17.87;9.70;;;;;;;-2.88;100.00;99223.38;4962122;29;20447;-33
2021/01/31 05:42:32;;;;;;;17.87;10.60;;;;;;;-2.97;100.00;99218.91;4961947;29;20859;-34
2021/01/31 05:45:31;;;;;;;19.20;10.20;;;;;;;-2.85;100.00;99224.31;4961809;29;20455;-32
2021/01/31 05:48:24;;;;;;;19.00;10.07;;;;;;;-2.88;100.00;99225.91;4961466;29;20447;-34
2021/01/31 05:51:14;;;;;;;18.87;9.50;;;;;;;-2.90;100.00;99220.81;4961340;29;20487;-32
2021/01/31 05:54:26;;;;;;;15.63;10.13;;;;;;;-2.93;100.00;99219.84;4962196;29;20846;-32
2021/01/31 05:57:22;;;;;;;17.20;10.23;;;;;;;-2.96;100.00;99220.63;4961431;29;20914;-31
2021/01/31 06:00:21;;;;;;;18.90;10.13;;;;;;;-2.91;100.00;99219.09;4961452;29;20443;-33
2021/01/31 06:03:08;;;;;;;17.47;10.07;;;;;;;-3.08;100.00;99217.75;4961759;29;20523;-33
2021/01/31 06:06:08;;;;;;;19.30;10.87;;;;;;;-3.00;100.00;99218.84;4961169;29;20439;-34
2021/01/31 06:08:55;;;;;;;16.17;10.17;;;;;;;-3.13;100.00;99210.03;4961749;29;20495;-31
2021/01/31 06:11:43;;;;;;;18.33;10.47;;;;;;;-3.13;100.00;99219.31;4961177;29;20814;-31
2021/01/31 06:14:32;;;;;;;14.60;9.53;;;;;;;-3.16;100.00;99211.63;4960693;29;20447;-32
2021/01/31 06:17:21;;;;;;;16.40;10.27;;;;;;;-3.16;100.00;99212.47;4961115;29;20451;-32
2021/01/31 06:20:14;;;;;;;19.23;9.87;;;;;;;-3.19;100.00;99211.53;4961046;29;20546;-33
2021/01/31 06:23:03;;;;;;;21.23;10.97;;;;;;;-3.22;100.00;99211.47;4961098;29;20459;-36
2021/01/31 06:25:49;;;;;;;17.63;11.20;;;;;;;-3.25;100.00;99204.66;4960577;29;20551;-36
2021/01/31 06:28:44;;;;;;;18.80;11.47;;;;;;;-3.20;100.00;99205.63;4961334;29;20455;-34
2021/01/31 06:31:39;;;;;;;19.70;11.57;;;;;;;-3.20;100.00;99210.66;4960976;29;20491;-34
2021/01/31 06:34:26;;;;;;;21.07;11.90;;;;;;;-3.16;100.00;99206.56;4961017;29;20523;-33
2021/01/31 06:37:30;;;;;;;16.60;10.80;;;;;;;-3.19;100.00;99204.81;4961017;29;20467;-34
2021/01/31 06:40:29;;;;;;;20.80;12.93;;;;;;;-3.19;100.00;99202.28;4960393;29;20462;-32
2021/01/31 06:43:36;;;;;;;19.27;11.90;;;;;;;-3.20;100.00;99202.25;4960415;29;20267;-35
2021/01/31 06:46:32;;;;;;;20.03;12.27;;;;;;;-3.21;100.00;99203.94;4960438;29;20635;-34
2021/01/31 06:49:36;;;;;;;19.27;11.33;;;;;;;-3.13;100.00;99206.66;4960385;28;20448;-32
2021/01/31 06:52:32;;;;;;;20.03;11.60;;;;;;;-3.17;100.00;99204.84;4960303;29;20523;-33
2021/01/31 06:56:01;;;;;;;22.27;12.30;;;;;;;-3.07;100.00;99205.97;4961104;28;20900;-37
2021/01/31 06:59:15;;;;;;;21.90;15.38;;;;;;;-3.03;100.00;99208.66;4951236;28;20457;-33
2021/01/31 07:02:46;;;;;;;24.10;13.73;;;;;;;-2.99;100.00;99204.50;4970624;28;20207;-36
2021/01/31 07:05:57;;;;;;;19.17;11.50;;;;;;;-3.01;100.00;99209.53;4934568;29;20468;-34
2021/01/31 07:09:12;;;;;;;20.70;12.90;;;;;;;-3.01;100.00;99212.06;4960500;29;20531;-34
2021/01/31 07:12:04;;;;;;;20.07;11.70;;;;;;;-3.02;100.00;99204.44;4960474;29;20491;-34
2021/01/31 07:14:58;;;;;;;19.97;11.50;;;;;;;-3.05;100.00;99209.41;4960099;29;20599;-33
2021/01/31 07:17:53;;;;;;;21.87;12.00;;;;;;;-3.02;100.00;99210.34;4960437;29;20448;-32
2021/01/31 07:20:46;;;;;;;20.47;12.13;;;;;;;-3.05;100.00;99219.53;4959820;29;20874;-34
2021/01/31 07:23:35;;;;;;;23.03;13.17;;;;;;;-2.99;100.00;99223.06;4960045;29;20833;-33
2021/01/31 07:26:32;;;;;;;20.30;12.23;;;;;;;-3.00;100.00;99228.97;4959869;29;20973;-34
2021/01/31 07:29:24;;;;;;;21.60;12.47;;;;;;;-2.97;100.00;99233.22;4959524;29;20455;-35
2021/01/31 07:32:18;;;;;;;20.67;12.17;;;;;;;-2.94;100.00;99235.84;4959421;29;20627;-32
2021/01/31 07:35:09;;;;;;;20.67;11.53;;;;;;;-3.05;100.00;99224.59;4960119;29;20797;-34
2021/01/31 07:38:09;;;;;;;20.57;12.63;;;;;;;-2.98;100.00;99226.44;4959697;29;20452;-32
2021/01/31 07:40:57;;;;;;;22.30;12.03;;;;;;;-3.06;100.00;99222.88;4959372;29;20611;-34
2021/01/31 07:43:46;;;;;;;19.03;12.30;;;;;;;-3.04;100.00;99217.03;4959150;29;20451;-34
2021/01/31 07:46:32;;;;;;;20.57;12.63;;;;;;;-3.04;100.00;99217.03;4959179;29;20450;-32
2021/01/31 07:49:17;;;;;;;19.90;12.43;;;;;;;-2.97;100.00;99213.00;4959502;29;20455;-33
2021/01/31 07:52:12;;;;;;;22.60;12.17;;;;;;;-2.90;100.00;99213.22;4959310;29;20494;-35
2021/01/31 07:55:09;;;;;;;21.57;12.97;;;;;;;-2.80;100.00;99212.63;4959560;29;20560;-48
2021/01/31 07:58:22;;;;;;;21.37;13.03;;;;;;;-2.70;100.00;99221.34;4959120;29;20467;-36
2021/01/31 08:01:41;;;;;;;24.73;13.23;;;;;;;-2.73;100.00;99218.72;4954432;29;20743;-37
2021/01/31 08:04:46;;;;;;;18.60;11.00;;;;;;;-2.62;100.00;99219.88;4958556;29;20451;-35
2021/01/31 08:08:02;;;;;;;19.63;12.10;;;;;;;-2.51;100.00;99215.94;4958765;29;20468;-32
2021/01/31 08:10:50;;;;;;;19.20;11.97;;;;;;;-2.46;100.00;99216.06;4958876;29;20937;-36
2021/01/31 08:13:39;;;;;;;21.80;12.27;;;;;;;-2.45;100.00;99221.19;4958891;29;20692;-34
2021/01/31 08:16:55;;;;;;;22.17;13.17;;;;;;;-2.27;100.00;99217.41;4959365;29;20451;-34
2021/01/31 08:19:41;;;;;;;21.17;12.30;;;;;;;-2.37;100.00;99215.44;4958893;29;20511;-35
2021/01/31 08:22:35;;;;;;;22.17;13.30;;;;;;;-2.10;100.00;99206.00;4959103;29;20448;-33
2021/01/31 08:25:26;;;;;;;19.07;11.77;;;;;;;-1.90;100.00;99207.31;4973757;28;20463;-31
2021/01/31 08:28:20;;;;;;;19.63;12.33;;;;;;;-1.00;100.00;99205.91;4978311;28;20455;-31
2021/01/31 08:31:12;;;;;;;17.97;12.47;;;;;;;-0.63;100.00;99213.41;4977457;28;20487;-34
2021/01/31 08:34:01;;;;;;;17.40;11.30;;;;;;;-0.31;100.00;99216.50;4978337;28;20451;-32
2021/01/31 08:36:47;;;;;;;14.97;11.00;;;;;;;-0.36;100.00;99218.97;4977728;28;20766;-32
2021/01/31 08:39:37;;;;;;;16.77;11.67;;;;;;;-0.16;100.00;99210.81;4977460;28;20202;-34
2021/01/31 08:42:23;;;;;;;17.13;11.37;;;;;;;-0.25;100.00;99215.78;4978150;28;20578;-35
2021/01/31 08:45:12;;;;;;;17.03;11.57;;;;;;;-0.31;100.00;99211.44;4977551;28;20569;-38
2021/01/31 08:47:58;;;;;;;17.53;11.37;;;;;;;-0.79;100.00;99213.91;4977147;28;20254;-35
2021/01/31 08:50:44;;;;;;;19.83;11.57;;;;;;;-0.94;100.00;99216.16;4978056;28;20474;-33
2021/01/31 08:53:33;;;;;;;18.53;12.03;;;;;;;-0.65;100.00;99216.75;4978240;28;20449;-34
2021/01/31 08:56:24;;;;;;;16.20;11.10;;;;;;;-0.52;100.00;99216.97;4978428;28;20475;-36
2021/01/31 08:59:16;;;;;;;18.27;11.40;;;;;;;-0.26;100.00;99201.34;4977884;28;20454;-35
2021/01/31 09:02:18;;;;;;;16.57;12.13;;;;;;;0.15;100.00;99214.72;4977648;28;20438;-33
2021/01/31 09:05:15;;;;;;;17.17;11.70;;;;;;;0.09;100.00;99215.47;4977654;28;20823;-34
2021/01/31 09:08:05;;;;;;;16.77;10.87;;;;;;;-0.14;100.00;99216.78;4977268;28;20463;-35
2021/01/31 09:10:51;;;;;;;18.37;11.87;;;;;;;0.03;100.00;99215.38;4977141;28;20234;-34
2021/01/31 09:13:38;;;;;;;17.50;11.17;;;;;;;-0.11;100.00;99219.38;4981408;28;20222;-37
2021/01/31 09:16:26;;;;;;;17.50;11.60;;;;;;;-0.46;100.00;99214.56;4981815;28;20354;-34
2021/01/31 09:19:19;;;;;;;17.23;11.77;;;;;;;-0.33;100.00;99219.84;4961790;29;20606;-34
2021/01/31 09:22:10;;;;;;;17.20;10.73;;;;;;;-0.71;100.00;99222.53;4961779;29;20447;-35
2021/01/31 09:25:01;;;;;;;15.60;10.57;;;;;;;-0.45;100.00;99223.91;4961377;29;20761;-39
2021/01/31 09:27:56;;;;;;;17.37;11.73;;;;;;;-0.13;100.00;99221.03;4961632;29;20447;-35
2021/01/31 09:30:42;;;;;;;19.40;11.07;;;;;;;-0.63;100.00;99221.03;4961687;29;20340;-34
2021/01/31 09:33:31;;;;;;;16.70;10.87;;;;;;;-0.28;100.00;99230.94;4961904;29;20452;-35
2021/01/31 09:36:23;;;;;;;16.50;11.27;;;;;;;-0.43;100.00;99217.16;4962206;29;20203;-38
2021/01/31 09:39:09;;;;;;;18.50;11.87;;;;;;;-0.52;100.00;99221.22;4961499;29;20466;-33
2021/01/31 09:41:55;;;;;;;14.53;10.40;;;;;;;-0.42;100.00;99233.25;4961913;29;20853;-35
2021/01/31 09:44:48;;;;;;;18.40;11.87;;;;;;;0.23;100.00;99231.81;4961533;29;20458;-36
2021/01/31 09:47:35;;;;;;;16.73;10.97;;;;;;;0.31;100.00;99234.47;4961825;29;20522;-34
2021/01/31 09:50:21;;;;;;;17.47;11.50;;;;;;;0.56;100.00;99228.94;4961605;29;20507;-37
2021/01/31 09:53:23;;;;;;;17.37;11.20;;;;;;;0.33;100.00;99225.19;4961748;29;20685;-36
2021/01/31 09:56:12;;;;;;;15.63;10.03;;;;;;;0.45;100.00;99230.44;4960506;29;20742;-37
2021/01/31 09:59:01;;;;;;;13.67;9.67;;;;;;;0.41;100.00;99236.31;4960612;29;20251;-37
2021/01/31 10:01:47;;;;;;;16.23;10.63;;;;;;;0.59;100.00;99228.97;4961067;29;20200;-36
2021/01/31 10:04:34;;;;;;;15.77;11.63;;;;;;;1.09;100.00;99235.53;4961342;29;20491;-37
2021/01/31 10:07:30;;;;;;;14.97;10.93;;;;;;;1.41;100.00;99236.75;4961525;29;20207;-37
2021/01/31 10:10:33;;;;;;;14.07;11.13;;;;;;;1.28;100.00;99229.84;4960937;29;20243;-33
2021/01/31 10:13:29;;;;;;;14.47;11.07;;;;;;;1.18;100.00;99225.50;4961372;29;20211;-37
2021/01/31 10:16:17;;;;;;;17.17;12.10;;;;;;;1.70;100.00;99230.28;4961077;29;20260;-35
2021/01/31 10:19:18;;;;;;;16.00;10.60;;;;;;;1.75;100.00;99224.38;4961032;29;20487;-38
2021/01/31 10:22:13;;;;;;;14.33;10.23;;;;;;;1.20;100.00;99221.28;4961061;28;20200;-38
2021/01/31 10:25:01;;;;;;;13.50;10.67;;;;;;;1.32;100.00;99216.31;4960601;29;20204;-35
2021/01/31 10:27:49;;;;;;;16.17;10.13;;;;;;;0.97;100.00;99213.34;4960093;29;20203;-37
2021/01/31 10:30:44;;;;;;;15.17;9.40;;;;;;;1.01;100.00;99205.75;4960393;29;20208;-38
2021/01/31 10:33:42;;;;;;;13.67;9.97;;;;;;;1.29;100.00;99200.97;4960627;29;20732;-33
2021/01/31 10:36:34;;;;;;;13.87;10.20;;;;;;;1.90;100.00;99189.69;4960575;29;20355;-39
2021/01/31 10:39:28;;;;;;;13.37;9.80;;;;;;;1.36;100.00;99187.47;4960405;29;20203;-35
2021/01/31 10:42:16;;;;;;;13.83;9.53;;;;;;;2.03;100.00;99188.06;4959369;29;20689;-38
2021/01/31 10:45:07;;;;;;;14.90;9.80;;;;;;;2.31;100.00;99190.00;4960079;29;20203;-38
2021/01/31 10:47:53;;;;;;;13.07;9.17;;;;;;;2.42;100.00;99190.91;4960241;29;20542;-40
2021/01/31 10:50:38;;;;;;;13.87;9.50;;;;;;;1.77;100.00;99194.69;4960255;29;20195;-40
2021/01/31 10:53:24;;;;;;;13.63;9.37;;;;;;;2.02;100.00;99186.38;4960144;29;20726;-40
2021/01/31 10:56:10;;;;;;;11.47;9.23;;;;;;;2.10;100.00;99189.84;4959847;29;20205;-41
2021/01/31 10:58:57;;;;;;;13.90;9.53;;;;;;;1.92;100.00;99190.56;4959911;29;20208;-41
2021/01/31 11:01:49;;;;;;;12.00;9.60;;;;;;;2.33;100.00;99179.81;4959614;29;20204;-40
2021/01/31 11:04:35;;;;;;;12.17;9.27;;;;;;;2.59;100.00;99172.31;4958999;29;20383;-40
2021/01/31 11:07:21;;;;;;;11.63;9.07;;;;;;;3.36;100.00;99166.66;4964659;28;20205;-40
2021/01/31 11:10:10;;;;;;;12.03;9.50;;;;;;;2.15;100.00;99161.81;4978287;28;20388;-37
2021/01/31 11:13:03;;;;;;;12.93;8.97;;;;;;;2.42;100.00;99161.97;4979532;28;20241;-41
2021/01/31 11:15:49;;;;;;;15.90;9.20;;;;;;;2.18;100.00;99156.75;4979254;28;20207;-42
2021/01/31 11:18:38;;;;;;;11.93;8.80;;;;;;;2.85;100.00;99155.41;4978744;28;20318;-38
2021/01/31 11:21:29;;;;;;;11.17;8.43;;;;;;;2.63;100.00;99156.16;4979464;28;20199;-41
2021/01/31 11:24:18;;;;;;;12.47;9.30;;;;;;;2.77;100.00;99149.44;4978938;28;20302;-41
2021/01/31 11:27:20;;;;;;;12.83;9.50;;;;;;;2.78;100.00;99143.47;4978687;28;20622;-40
2021/01/31 11:30:06;;;;;;;16.43;10.70;;;;;;;2.58;100.00;99138.28;4978341;28;20694;-41
2021/01/31 11:32:53;;;;;;;13.03;9.50;;;;;;;2.87;100.00;99140.94;4978524;28;20234;-40
2021/01/31 11:35:42;;;;;;;10.50;8.20;;;;;;;1.74;100.00;99141.97;4978700;28;20227;-39
2021/01/31 11:38:28;;;;;;;11.77;9.43;;;;;;;2.13;100.00;99132.91;4978369;28;20203;-37
2021/01/31 11:41:20;;;;;;;13.20;9.10;;;;;;;2.65;100.00;99137.44;4978800;28;20270;-40
2021/01/31 11:44:14;;;;;;;12.83;9.10;;;;;;;2.20;100.00;99121.91;4979007;28;20271;-38
2021/01/31 11:46:59;;;;;;;12.47;9.87;;;;;;;3.40;100.00;99118.06;4979318;28;20210;-39
2021/01/31 11:49:46;;;;;;;11.43;9.00;;;;;;;3.21;99.93;99111.22;4978508;28;20209;-39
2021/01/31 11:52:33;;;;;;;10.60;8.53;;;;;;;3.11;98.04;99112.94;4978435;28;20235;-38
2021/01/31 11:55:19;;;;;;;11.80;8.70;;;;;;;2.54;98.99;99107.63;4978931;28;20206;-37
2021/01/31 11:58:06;;;;;;;12.57;9.13;;;;;;;2.17;100.00;99106.59;4978299;28;20602;-40
2021/01/31 12:00:52;;;;;;;13.07;8.90;;;;;;;2.13;100.00;99107.41;4959470;29;20203;-38
2021/01/31 12:03:37;;;;;;;10.83;8.93;;;;;;;2.67;100.00;99102.56;4959476;29;20500;-40
2021/01/31 12:06:25;;;;;;;13.13;8.70;;;;;;;2.37;100.00;99088.00;4963442;28;20262;-40
2021/01/31 12:09:11;;;;;;;11.13;9.20;;;;;;;2.33;100.00;99077.75;4975753;28;20265;-39
2021/01/31 12:11:57;;;;;;;10.63;8.20;;;;;;;2.62;100.00;99075.31;4977861;28;20229;-37
2021/01/31 12:14:44;;;;;;;12.33;9.40;;;;;;;2.38;100.00;99081.19;4978008;28;20359;-38
2021/01/31 12:17:30;;;;;;;10.77;8.37;;;;;;;2.78;100.00;99087.31;4978216;28;20208;-40
2021/01/31 12:20:18;;;;;;;11.40;8.33;;;;;;;2.66;100.00;99090.66;4977737;28;20213;-39
2021/01/31 12:23:05;;;;;;;10.00;8.30;;;;;;;3.32;100.00;99078.91;4978224;28;20290;-39
2021/01/31 12:25:52;;;;;;;12.33;8.97;;;;;;;3.21;100.00;99082.25;4978341;28;20492;-37
2021/01/31 12:28:41;;;;;;;11.53;8.67;;;;;;;3.45;96.77;99070.38;4977799;28;20217;-38
2021/01/31 12:31:27;;;;;;;11.63;8.57;;;;;;;2.83;98.52;99070.28;4978030;28;20244;-39
2021/01/31 12:34:13;;;;;;;11.03;8.13;;;;;;;2.57;99.07;99064.25;4977504;28;20260;-36
2021/01/31 12:36:58;;;;;;;11.57;8.53;;;;;;;3.35;96.03;99055.03;4960919;28;20206;-41
2021/01/31 12:39:44;;;;;;;10.77;7.57;;;;;;;2.83;94.00;99044.75;4975883;28;20261;-39
2021/01/31 12:42:31;;;;;;;11.60;8.73;;;;;;;3.70;95.79;99039.69;4977303;28;20650;-36
2021/01/31 12:45:20;;;;;;;10.83;8.00;;;;;;;3.16;96.51;99035.44;4977363;28;20250;-35
2021/01/31 12:48:07;;;;;;;13.37;7.97;;;;;;;3.33;92.56;99028.63;4977055;28;20609;-37
2021/01/31 12:50:53;;;;;;;12.00;8.63;;;;;;;3.01;98.81;99034.56;4978084;28;20258;-38
2021/01/31 12:53:41;;;;;;;12.17;8.47;;;;;;;3.83;96.04;99031.13;4977457;28;20314;-40
2021/01/31 12:56:29;;;;;;;11.43;8.27;;;;;;;3.48;94.81;99018.41;4977576;28;20282;-34
2021/01/31 12:59:18;;;;;;;10.43;7.63;;;;;;;3.31;94.49;99020.13;4977964;28;20335;-34
2021/01/31 13:02:03;;;;;;;10.20;7.97;;;;;;;3.27;92.67;99009.03;4976054;28;20199;-38
2021/01/31 13:04:50;;;;;;;11.23;8.70;;;;;;;4.08;92.71;99003.78;4977103;28;20211;-39